sensor_id;sensor_type;location;lat;lon;timestamp;P1;durP1;ratioP1;P2;durP2;ratioP2
69750;SDS011;57335;52.288;6.056;2022-09-27T00:01:15;5.45;;;0.90;;
69750;SDS011;57335;52.288;6.056;2022-09-27T00:03:42;5.22;;;0.93;;
69750;SDS011;57335;52.288;6.056;2022-09-27T00:06:14;3.50;;;0.75;;
69750;SDS011;57335;52.288;6.056;2022-09-27T00:08:45;5.10;;;1.27;;
69750;SDS011;57335;52.288;6.056;2022-09-27T00:11:54;3.05;;;0.75;;
69750;SDS011;57335;52.288;6.056;2022-09-27T00:14:03;4.68;;;0.80;;
69750;SDS011;57335;52.288;6.056;2022-09-27T00:16:32;4.55;;;0.80;;
69750;SDS011;57335;52.288;6.056;2022-09-27T00:19:06;6.30;;;0.90;;
69750;SDS011;57335;52.288;6.056;2022-09-27T00:21:35;3.75;;;0.63;;
69750;SDS011;57335;52.288;6.056;2022-09-27T00:24:02;2.05;;;0.50;;
69750;SDS011;57335;52.288;6.056;2022-09-27T00:26:28;3.35;;;0.70;;
69750;SDS011;57335;52.288;6.056;2022-09-27T00:28:55;2.55;;;0.40;;
69750;SDS011;57335;52.288;6.056;2022-09-27T00:31:22;5.38;;;0.60;;
69750;SDS011;57335;52.288;6.056;2022-09-27T00:33:52;3.58;;;0.65;;
69750;SDS011;57335;52.288;6.056;2022-09-27T00:36:19;2.00;;;0.50;;
69750;SDS011;57335;52.288;6.056;2022-09-27T00:38:47;3.17;;;0.60;;
69750;SDS011;57335;52.288;6.056;2022-09-27T00:41:23;2.65;;;0.73;;
69750;SDS011;57335;52.288;6.056;2022-09-27T00:43:52;2.05;;;0.45;;
69750;SDS011;57335;52.288;6.056;2022-09-27T00:46:24;4.10;;;0.60;;
69750;SDS011;57335;52.288;6.056;2022-09-27T00:49:06;2.67;;;0.45;;
69750;SDS011;57335;52.288;6.056;2022-09-27T00:51:44;4.07;;;0.77;;
69750;SDS011;57335;52.288;6.056;2022-09-27T00:54:16;4.38;;;0.70;;
69750;SDS011;57335;52.288;6.056;2022-09-27T00:56:44;4.15;;;0.50;;
69750;SDS011;57335;52.288;6.056;2022-09-27T00:59:16;2.25;;;0.40;;
69750;SDS011;57335;52.288;6.056;2022-09-27T01:01:48;5.72;;;0.75;;
69750;SDS011;57335;52.288;6.056;2022-09-27T01:04:17;7.68;;;0.70;;
69750;SDS011;57335;52.288;6.056;2022-09-27T01:06:46;4.85;;;0.60;;
69750;SDS011;57335;52.288;6.056;2022-09-27T01:09:12;0.98;;;0.40;;
69750;SDS011;57335;52.288;6.056;2022-09-27T01:14:28;3.88;;;0.50;;
69750;SDS011;57335;52.288;6.056;2022-09-27T01:17:18;2.38;;;0.60;;
69750;SDS011;57335;52.288;6.056;2022-09-27T01:42:02;2.30;;;0.40;;
69750;SDS011;57335;52.288;6.056;2022-09-27T01:44:41;1.75;;;0.50;;
69750;SDS011;57335;52.288;6.056;2022-09-27T01:47:14;6.30;;;0.93;;
69750;SDS011;57335;52.288;6.056;2022-09-27T01:49:55;3.25;;;0.40;;
69750;SDS011;57335;52.288;6.056;2022-09-27T01:52:31;3.35;;;0.35;;
69750;SDS011;57335;52.288;6.056;2022-09-27T01:55:03;2.80;;;0.57;;
69750;SDS011;57335;52.288;6.056;2022-09-27T01:57:35;1.65;;;0.40;;
69750;SDS011;57335;52.288;6.056;2022-09-27T02:00:06;1.42;;;0.50;;
69750;SDS011;57335;52.288;6.056;2022-09-27T02:02:39;1.48;;;0.30;;
69750;SDS011;57335;52.288;6.056;2022-09-27T02:05:11;2.92;;;0.20;;
69750;SDS011;57335;52.288;6.056;2022-09-27T02:07:45;2.45;;;0.20;;
69750;SDS011;57335;52.288;6.056;2022-09-27T02:10:18;3.08;;;0.45;;
69750;SDS011;57335;52.288;6.056;2022-09-27T02:12:51;2.85;;;0.50;;
69750;SDS011;57335;52.288;6.056;2022-09-27T02:15:23;1.60;;;0.30;;
69750;SDS011;57335;52.288;6.056;2022-09-27T02:17:59;1.17;;;0.40;;
69750;SDS011;57335;52.288;6.056;2022-09-27T02:20:34;2.58;;;0.40;;
69750;SDS011;57335;52.288;6.056;2022-09-27T02:26:17;2.92;;;0.55;;
69750;SDS011;57335;52.288;6.056;2022-09-27T02:31:17;1.67;;;0.40;;
69750;SDS011;57335;52.288;6.056;2022-09-27T02:36:15;0.90;;;0.43;;
69750;SDS011;57335;52.288;6.056;2022-09-27T02:38:42;0.90;;;0.50;;
69750;SDS011;57335;52.288;6.056;2022-09-27T02:41:16;1.60;;;0.45;;
69750;SDS011;57335;52.288;6.056;2022-09-27T02:43:46;2.95;;;0.65;;
69750;SDS011;57335;52.288;6.056;2022-09-27T03:05:20;3.50;;;0.70;;
69750;SDS011;57335;52.288;6.056;2022-09-27T03:07:58;5.95;;;0.80;;
69750;SDS011;57335;52.288;6.056;2022-09-27T03:10:28;5.53;;;0.90;;
69750;SDS011;57335;52.288;6.056;2022-09-27T03:12:54;3.50;;;0.90;;
69750;SDS011;57335;52.288;6.056;2022-09-27T03:15:22;2.20;;;0.68;;
69750;SDS011;57335;52.288;6.056;2022-09-27T03:17:48;5.25;;;1.00;;
69750;SDS011;57335;52.288;6.056;2022-09-27T03:20:15;5.28;;;0.90;;
69750;SDS011;57335;52.288;6.056;2022-09-27T03:22:41;5.32;;;0.77;;
69750;SDS011;57335;52.288;6.056;2022-09-27T03:25:07;2.47;;;0.70;;
69750;SDS011;57335;52.288;6.056;2022-09-27T03:27:34;3.88;;;0.68;;
69750;SDS011;57335;52.288;6.056;2022-09-27T03:30:00;7.88;;;1.00;;
69750;SDS011;57335;52.288;6.056;2022-09-27T03:32:27;6.35;;;0.77;;
69750;SDS011;57335;52.288;6.056;2022-09-27T03:34:53;3.08;;;0.80;;
69750;SDS011;57335;52.288;6.056;2022-09-27T03:37:20;4.95;;;0.70;;
69750;SDS011;57335;52.288;6.056;2022-09-27T03:39:46;2.78;;;0.60;;
69750;SDS011;57335;52.288;6.056;2022-09-27T03:42:13;5.32;;;0.80;;
69750;SDS011;57335;52.288;6.056;2022-09-27T03:44:39;5.43;;;0.93;;
69750;SDS011;57335;52.288;6.056;2022-09-27T03:47:05;4.75;;;0.77;;
69750;SDS011;57335;52.288;6.056;2022-09-27T03:49:32;5.85;;;0.90;;
69750;SDS011;57335;52.288;6.056;2022-09-27T03:51:58;4.30;;;0.90;;
69750;SDS011;57335;52.288;6.056;2022-09-27T03:54:24;3.38;;;0.70;;
69750;SDS011;57335;52.288;6.056;2022-09-27T03:56:51;5.15;;;0.75;;
69750;SDS011;57335;52.288;6.056;2022-09-27T03:59:17;4.32;;;0.90;;
69750;SDS011;57335;52.288;6.056;2022-09-27T04:01:43;3.63;;;0.70;;
69750;SDS011;57335;52.288;6.056;2022-09-27T04:04:10;3.75;;;0.80;;
69750;SDS011;57335;52.288;6.056;2022-09-27T04:06:36;4.10;;;0.80;;
69750;SDS011;57335;52.288;6.056;2022-09-27T04:09:03;6.93;;;0.90;;
69750;SDS011;57335;52.288;6.056;2022-09-27T04:11:30;7.32;;;1.13;;
69750;SDS011;57335;52.288;6.056;2022-09-27T04:13:56;5.68;;;0.93;;
69750;SDS011;57335;52.288;6.056;2022-09-27T04:16:23;6.70;;;0.80;;
69750;SDS011;57335;52.288;6.056;2022-09-27T04:18:49;4.18;;;0.80;;
69750;SDS011;57335;52.288;6.056;2022-09-27T04:21:16;5.43;;;0.82;;
69750;SDS011;57335;52.288;6.056;2022-09-27T04:23:42;5.35;;;0.90;;
69750;SDS011;57335;52.288;6.056;2022-09-27T04:26:08;5.72;;;0.82;;
69750;SDS011;57335;52.288;6.056;2022-09-27T04:28:34;7.57;;;0.85;;
69750;SDS011;57335;52.288;6.056;2022-09-27T04:31:01;6.97;;;1.00;;
69750;SDS011;57335;52.288;6.056;2022-09-27T04:33:27;3.65;;;1.02;;
69750;SDS011;57335;52.288;6.056;2022-09-27T04:35:54;9.40;;;1.45;;
69750;SDS011;57335;52.288;6.056;2022-09-27T04:38:20;4.75;;;0.80;;
69750;SDS011;57335;52.288;6.056;2022-09-27T04:40:46;4.90;;;0.90;;
69750;SDS011;57335;52.288;6.056;2022-09-27T04:43:13;7.32;;;1.17;;
69750;SDS011;57335;52.288;6.056;2022-09-27T04:45:39;3.63;;;1.00;;
69750;SDS011;57335;52.288;6.056;2022-09-27T04:48:05;7.00;;;1.00;;
69750;SDS011;57335;52.288;6.056;2022-09-27T04:50:32;6.38;;;1.08;;
69750;SDS011;57335;52.288;6.056;2022-09-27T04:53:01;7.68;;;1.65;;
69750;SDS011;57335;52.288;6.056;2022-09-27T04:55:28;6.07;;;1.10;;
69750;SDS011;57335;52.288;6.056;2022-09-27T04:57:54;7.93;;;1.60;;
69750;SDS011;57335;52.288;6.056;2022-09-27T05:00:20;6.05;;;1.20;;
69750;SDS011;57335;52.288;6.056;2022-09-27T05:02:47;8.52;;;1.50;;
69750;SDS011;57335;52.288;6.056;2022-09-27T05:05:14;6.10;;;0.90;;
69750;SDS011;57335;52.288;6.056;2022-09-27T05:07:41;8.60;;;1.10;;
69750;SDS011;57335;52.288;6.056;2022-09-27T05:10:07;7.70;;;1.30;;
69750;SDS011;57335;52.288;6.056;2022-09-27T05:12:34;5.07;;;1.00;;
69750;SDS011;57335;52.288;6.056;2022-09-27T05:15:01;4.50;;;1.05;;
69750;SDS011;57335;52.288;6.056;2022-09-27T05:17:28;4.82;;;1.30;;
69750;SDS011;57335;52.288;6.056;2022-09-27T05:19:55;5.00;;;1.02;;
69750;SDS011;57335;52.288;6.056;2022-09-27T05:22:21;6.63;;;1.00;;
69750;SDS011;57335;52.288;6.056;2022-09-27T05:24:47;7.28;;;1.15;;
69750;SDS011;57335;52.288;6.056;2022-09-27T05:27:14;3.72;;;1.00;;
69750;SDS011;57335;52.288;6.056;2022-09-27T05:29:41;5.47;;;0.93;;
69750;SDS011;57335;52.288;6.056;2022-09-27T05:32:07;4.90;;;1.00;;
69750;SDS011;57335;52.288;6.056;2022-09-27T05:34:34;5.90;;;1.08;;
69750;SDS011;57335;52.288;6.056;2022-09-27T05:37:00;4.95;;;1.20;;
69750;SDS011;57335;52.288;6.056;2022-09-27T05:39:26;4.40;;;0.73;;
69750;SDS011;57335;52.288;6.056;2022-09-27T05:41:53;8.52;;;1.30;;
69750;SDS011;57335;52.288;6.056;2022-09-27T05:44:19;6.40;;;1.30;;
69750;SDS011;57335;52.288;6.056;2022-09-27T05:46:45;8.73;;;1.20;;
69750;SDS011;57335;52.288;6.056;2022-09-27T05:49:12;5.10;;;1.10;;
69750;SDS011;57335;52.288;6.056;2022-09-27T05:51:38;7.65;;;1.38;;
69750;SDS011;57335;52.288;6.056;2022-09-27T05:54:04;2.72;;;0.88;;
69750;SDS011;57335;52.288;6.056;2022-09-27T05:56:31;5.97;;;1.00;;
69750;SDS011;57335;52.288;6.056;2022-09-27T05:58:57;6.82;;;1.05;;
69750;SDS011;57335;52.288;6.056;2022-09-27T06:01:23;7.68;;;1.42;;
69750;SDS011;57335;52.288;6.056;2022-09-27T06:03:50;7.50;;;1.30;;
69750;SDS011;57335;52.288;6.056;2022-09-27T06:06:16;4.25;;;1.13;;
69750;SDS011;57335;52.288;6.056;2022-09-27T06:08:42;6.97;;;1.20;;
69750;SDS011;57335;52.288;6.056;2022-09-27T06:11:09;2.83;;;1.10;;
69750;SDS011;57335;52.288;6.056;2022-09-27T06:13:37;3.95;;;0.80;;
69750;SDS011;57335;52.288;6.056;2022-09-27T06:16:05;3.30;;;0.82;;
69750;SDS011;57335;52.288;6.056;2022-09-27T06:18:32;3.42;;;0.65;;
69750;SDS011;57335;52.288;6.056;2022-09-27T06:20:59;2.03;;;0.80;;
69750;SDS011;57335;52.288;6.056;2022-09-27T06:23:26;5.05;;;0.80;;
69750;SDS011;57335;52.288;6.056;2022-09-27T06:25:53;4.35;;;0.80;;
69750;SDS011;57335;52.288;6.056;2022-09-27T06:28:20;4.53;;;1.10;;
69750;SDS011;57335;52.288;6.056;2022-09-27T06:30:48;5.25;;;0.95;;
69750;SDS011;57335;52.288;6.056;2022-09-27T06:33:16;3.30;;;0.98;;
69750;SDS011;57335;52.288;6.056;2022-09-27T06:35:44;4.97;;;0.85;;
69750;SDS011;57335;52.288;6.056;2022-09-27T06:38:12;4.93;;;0.90;;
69750;SDS011;57335;52.288;6.056;2022-09-27T06:40:39;3.42;;;0.93;;
69750;SDS011;57335;52.288;6.056;2022-09-27T06:43:06;3.53;;;1.00;;
69750;SDS011;57335;52.288;6.056;2022-09-27T06:45:35;2.85;;;1.00;;
69750;SDS011;57335;52.288;6.056;2022-09-27T06:48:06;5.63;;;1.08;;
69750;SDS011;57335;52.288;6.056;2022-09-27T06:50:34;3.90;;;0.93;;
69750;SDS011;57335;52.288;6.056;2022-09-27T06:53:05;6.18;;;1.10;;
69750;SDS011;57335;52.288;6.056;2022-09-27T06:55:33;5.47;;;1.35;;
69750;SDS011;57335;52.288;6.056;2022-09-27T06:58:00;5.90;;;1.20;;
69750;SDS011;57335;52.288;6.056;2022-09-27T07:00:27;4.03;;;0.90;;
69750;SDS011;57335;52.288;6.056;2022-09-27T07:02:54;4.32;;;0.77;;
69750;SDS011;57335;52.288;6.056;2022-09-27T07:05:22;3.95;;;1.45;;
69750;SDS011;57335;52.288;6.056;2022-09-27T07:07:48;9.35;;;1.27;;
69750;SDS011;57335;52.288;6.056;2022-09-27T07:10:15;5.18;;;1.10;;
69750;SDS011;57335;52.288;6.056;2022-09-27T07:12:41;5.40;;;0.98;;
69750;SDS011;57335;52.288;6.056;2022-09-27T07:15:07;5.40;;;0.93;;
69750;SDS011;57335;52.288;6.056;2022-09-27T07:17:34;3.47;;;0.95;;
69750;SDS011;57335;52.288;6.056;2022-09-27T07:20:00;6.43;;;0.93;;
69750;SDS011;57335;52.288;6.056;2022-09-27T07:22:27;4.97;;;1.10;;
69750;SDS011;57335;52.288;6.056;2022-09-27T07:24:53;5.15;;;1.00;;
69750;SDS011;57335;52.288;6.056;2022-09-27T07:27:20;3.63;;;1.30;;
69750;SDS011;57335;52.288;6.056;2022-09-27T07:29:46;2.92;;;1.00;;
69750;SDS011;57335;52.288;6.056;2022-09-27T07:32:13;8.10;;;1.33;;
69750;SDS011;57335;52.288;6.056;2022-09-27T07:34:39;3.85;;;1.10;;
69750;SDS011;57335;52.288;6.056;2022-09-27T07:37:06;5.10;;;1.00;;
69750;SDS011;57335;52.288;6.056;2022-09-27T07:39:32;4.63;;;1.00;;
69750;SDS011;57335;52.288;6.056;2022-09-27T07:41:58;5.82;;;0.88;;
69750;SDS011;57335;52.288;6.056;2022-09-27T07:44:25;1.90;;;0.80;;
69750;SDS011;57335;52.288;6.056;2022-09-27T07:46:51;4.28;;;1.08;;
69750;SDS011;57335;52.288;6.056;2022-09-27T07:49:17;3.63;;;0.90;;
69750;SDS011;57335;52.288;6.056;2022-09-27T07:51:44;3.13;;;0.80;;
69750;SDS011;57335;52.288;6.056;2022-09-27T07:54:10;2.80;;;0.90;;
69750;SDS011;57335;52.288;6.056;2022-09-27T07:56:37;3.67;;;1.00;;
69750;SDS011;57335;52.288;6.056;2022-09-27T07:59:03;5.30;;;1.10;;
69750;SDS011;57335;52.288;6.056;2022-09-27T08:01:29;3.22;;;0.90;;
69750;SDS011;57335;52.288;6.056;2022-09-27T08:03:56;2.53;;;0.90;;
69750;SDS011;57335;52.288;6.056;2022-09-27T08:06:22;3.05;;;0.85;;
69750;SDS011;57335;52.288;6.056;2022-09-27T08:08:49;3.35;;;1.27;;
69750;SDS011;57335;52.288;6.056;2022-09-27T08:11:16;3.15;;;1.00;;
69750;SDS011;57335;52.288;6.056;2022-09-27T08:13:43;3.63;;;1.23;;
69750;SDS011;57335;52.288;6.056;2022-09-27T08:16:10;3.67;;;0.95;;
69750;SDS011;57335;52.288;6.056;2022-09-27T08:18:37;3.28;;;1.00;;
69750;SDS011;57335;52.288;6.056;2022-09-27T08:21:03;3.38;;;1.20;;
69750;SDS011;57335;52.288;6.056;2022-09-27T08:23:30;4.85;;;1.30;;
69750;SDS011;57335;52.288;6.056;2022-09-27T08:25:56;7.28;;;1.05;;
69750;SDS011;57335;52.288;6.056;2022-09-27T08:28:23;4.72;;;0.90;;
69750;SDS011;57335;52.288;6.056;2022-09-27T08:30:49;2.78;;;0.93;;
69750;SDS011;57335;52.288;6.056;2022-09-27T08:33:16;5.30;;;1.02;;
69750;SDS011;57335;52.288;6.056;2022-09-27T08:35:42;4.97;;;1.20;;
69750;SDS011;57335;52.288;6.056;2022-09-27T08:38:09;5.75;;;1.27;;
69750;SDS011;57335;52.288;6.056;2022-09-27T08:43:19;2.65;;;0.90;;
69750;SDS011;57335;52.288;6.056;2022-09-27T08:46:09;3.05;;;0.93;;
69750;SDS011;57335;52.288;6.056;2022-09-27T08:48:46;2.80;;;1.00;;
69750;SDS011;57335;52.288;6.056;2022-09-27T08:51:20;2.90;;;0.60;;
69750;SDS011;57335;52.288;6.056;2022-09-27T08:53:54;1.40;;;0.75;;
69750;SDS011;57335;52.288;6.056;2022-09-27T08:56:31;1.58;;;0.70;;
69750;SDS011;57335;52.288;6.056;2022-09-27T08:59:19;2.17;;;0.68;;
69750;SDS011;57335;52.288;6.056;2022-09-27T09:01:45;2.40;;;0.88;;
69750;SDS011;57335;52.288;6.056;2022-09-27T09:04:13;1.67;;;0.80;;
69750;SDS011;57335;52.288;6.056;2022-09-27T09:15:15;1.13;;;0.70;;
69750;SDS011;57335;52.288;6.056;2022-09-27T09:17:48;1.80;;;0.50;;
69750;SDS011;57335;52.288;6.056;2022-09-27T09:20:42;3.10;;;0.80;;
69750;SDS011;57335;52.288;6.056;2022-09-27T09:26:21;3.85;;;0.70;;
69750;SDS011;57335;52.288;6.056;2022-09-27T09:34:12;2.10;;;0.52;;
69750;SDS011;57335;52.288;6.056;2022-09-27T09:39:32;2.42;;;0.60;;
69750;SDS011;57335;52.288;6.056;2022-09-27T09:42:12;1.75;;;0.47;;
69750;SDS011;57335;52.288;6.056;2022-09-27T09:45:12;2.28;;;0.60;;
69750;SDS011;57335;52.288;6.056;2022-09-27T09:47:44;2.92;;;0.60;;
69750;SDS011;57335;52.288;6.056;2022-09-27T09:50:18;2.05;;;0.60;;
69750;SDS011;57335;52.288;6.056;2022-09-27T09:52:50;1.02;;;0.50;;
69750;SDS011;57335;52.288;6.056;2022-09-27T09:55:23;2.97;;;0.57;;
69750;SDS011;57335;52.288;6.056;2022-09-27T09:58:05;2.47;;;0.40;;
69750;SDS011;57335;52.288;6.056;2022-09-27T10:00:44;2.53;;;0.47;;
69750;SDS011;57335;52.288;6.056;2022-09-27T10:03:12;1.33;;;0.50;;
69750;SDS011;57335;52.288;6.056;2022-09-27T10:05:39;4.05;;;0.57;;
69750;SDS011;57335;52.288;6.056;2022-09-27T10:08:19;1.85;;;0.50;;
69750;SDS011;57335;52.288;6.056;2022-09-27T10:10:48;1.92;;;0.70;;
69750;SDS011;57335;52.288;6.056;2022-09-27T10:13:15;5.75;;;0.68;;
69750;SDS011;57335;52.288;6.056;2022-09-27T10:15:44;2.33;;;0.60;;
69750;SDS011;57335;52.288;6.056;2022-09-27T10:18:33;3.47;;;0.60;;
69750;SDS011;57335;52.288;6.056;2022-09-27T10:21:03;1.98;;;0.45;;
69750;SDS011;57335;52.288;6.056;2022-09-27T10:23:35;1.98;;;0.60;;
69750;SDS011;57335;52.288;6.056;2022-09-27T10:26:03;2.40;;;0.60;;
69750;SDS011;57335;52.288;6.056;2022-09-27T10:31:04;2.83;;;0.60;;
69750;SDS011;57335;52.288;6.056;2022-09-27T10:33:33;4.03;;;0.77;;
69750;SDS011;57335;52.288;6.056;2022-09-27T10:36:02;2.75;;;0.93;;
69750;SDS011;57335;52.288;6.056;2022-09-27T10:38:34;2.88;;;0.90;;
69750;SDS011;57335;52.288;6.056;2022-09-27T10:43:51;3.35;;;1.00;;
69750;SDS011;57335;52.288;6.056;2022-09-27T10:46:27;8.10;;;1.02;;
69750;SDS011;57335;52.288;6.056;2022-09-27T10:51:59;3.35;;;0.90;;
69750;SDS011;57335;52.288;6.056;2022-09-27T10:54:28;2.50;;;0.68;;
69750;SDS011;57335;52.288;6.056;2022-09-27T10:59:35;1.65;;;0.40;;
69750;SDS011;57335;52.288;6.056;2022-09-27T11:02:15;0.75;;;0.40;;
69750;SDS011;57335;52.288;6.056;2022-09-27T11:05:01;1.35;;;0.50;;
69750;SDS011;57335;52.288;6.056;2022-09-27T11:07:49;1.15;;;0.47;;
69750;SDS011;57335;52.288;6.056;2022-09-27T11:16:27;1.83;;;0.45;;
69750;SDS011;57335;52.288;6.056;2022-09-27T11:23:57;2.85;;;0.60;;
69750;SDS011;57335;52.288;6.056;2022-09-27T11:29:28;0.98;;;0.40;;
69750;SDS011;57335;52.288;6.056;2022-09-27T11:32:22;3.30;;;0.70;;
69750;SDS011;57335;52.288;6.056;2022-09-27T11:37:35;1.77;;;0.55;;
69750;SDS011;57335;52.288;6.056;2022-09-27T11:40:45;2.03;;;0.52;;
69750;SDS011;57335;52.288;6.056;2022-09-27T11:43:36;3.05;;;0.50;;
69750;SDS011;57335;52.288;6.056;2022-09-27T11:49:26;1.15;;;0.50;;
69750;SDS011;57335;52.288;6.056;2022-09-27T11:55:00;1.13;;;0.40;;
69750;SDS011;57335;52.288;6.056;2022-09-27T11:57:42;1.10;;;0.50;;
69750;SDS011;57335;52.288;6.056;2022-09-27T12:00:21;2.22;;;0.80;;
69750;SDS011;57335;52.288;6.056;2022-09-27T12:06:39;1.75;;;0.40;;
69750;SDS011;57335;52.288;6.056;2022-09-27T12:11:29;0.50;;;0.40;;
69750;SDS011;57335;52.288;6.056;2022-09-27T12:14:01;1.98;;;0.52;;
69750;SDS011;57335;52.288;6.056;2022-09-27T12:16:31;1.92;;;0.40;;
69750;SDS011;57335;52.288;6.056;2022-09-27T12:19:02;1.42;;;0.40;;
69750;SDS011;57335;52.288;6.056;2022-09-27T12:21:29;2.45;;;0.70;;
69750;SDS011;57335;52.288;6.056;2022-09-27T12:23:58;3.05;;;0.80;;
69750;SDS011;57335;52.288;6.056;2022-09-27T12:26:28;2.00;;;0.80;;
69750;SDS011;57335;52.288;6.056;2022-09-27T12:29:01;4.13;;;1.30;;
69750;SDS011;57335;52.288;6.056;2022-09-27T12:31:39;3.80;;;0.98;;
69750;SDS011;57335;52.288;6.056;2022-09-27T12:38:04;1.85;;;0.90;;
69750;SDS011;57335;52.288;6.056;2022-09-27T12:40:05;3.28;;;0.82;;
69750;SDS011;57335;52.288;6.056;2022-09-27T12:45:32;2.72;;;0.80;;
69750;SDS011;57335;52.288;6.056;2022-09-27T12:50:46;1.73;;;0.70;;
69750;SDS011;57335;52.288;6.056;2022-09-27T12:53:20;4.00;;;0.82;;
69750;SDS011;57335;52.288;6.056;2022-09-27T12:56:02;4.53;;;0.90;;
69750;SDS011;57335;52.288;6.056;2022-09-27T12:58:57;1.80;;;0.70;;
69750;SDS011;57335;52.288;6.056;2022-09-27T13:01:37;2.22;;;0.80;;
69750;SDS011;57335;52.288;6.056;2022-09-27T13:07:32;3.03;;;0.70;;
69750;SDS011;57335;52.288;6.056;2022-09-27T13:10:22;2.38;;;0.80;;
69750;SDS011;57335;52.288;6.056;2022-09-27T13:13:09;1.35;;;0.70;;
69750;SDS011;57335;52.288;6.056;2022-09-27T13:18:28;2.00;;;0.90;;
69750;SDS011;57335;52.288;6.056;2022-09-27T13:21:02;1.65;;;0.80;;
69750;SDS011;57335;52.288;6.056;2022-09-27T13:26:00;2.47;;;1.00;;
69750;SDS011;57335;52.288;6.056;2022-09-27T13:30:54;2.22;;;0.80;;
69750;SDS011;57335;52.288;6.056;2022-09-27T13:38:56;1.98;;;0.82;;
69750;SDS011;57335;52.288;6.056;2022-09-27T13:44:19;2.17;;;0.80;;
69750;SDS011;57335;52.288;6.056;2022-09-27T13:47:28;2.08;;;0.80;;
69750;SDS011;57335;52.288;6.056;2022-09-27T13:50:19;1.42;;;0.68;;
69750;SDS011;57335;52.288;6.056;2022-09-27T13:53:54;1.73;;;0.50;;
69750;SDS011;57335;52.288;6.056;2022-09-27T13:56:05;1.92;;;0.60;;
69750;SDS011;57335;52.288;6.056;2022-09-27T13:58:53;2.33;;;0.70;;
69750;SDS011;57335;52.288;6.056;2022-09-27T14:01:40;1.13;;;0.70;;
69750;SDS011;57335;52.288;6.056;2022-09-27T14:06:43;1.90;;;0.50;;
69750;SDS011;57335;52.288;6.056;2022-09-27T14:09:17;2.05;;;0.45;;
69750;SDS011;57335;52.288;6.056;2022-09-27T14:11:52;0.57;;;0.52;;
69750;SDS011;57335;52.288;6.056;2022-09-27T14:14:33;1.65;;;0.50;;
69750;SDS011;57335;52.288;6.056;2022-09-27T14:17:06;2.10;;;0.75;;
69750;SDS011;57335;52.288;6.056;2022-09-27T14:19:37;3.45;;;0.65;;
69750;SDS011;57335;52.288;6.056;2022-09-27T14:22:18;2.70;;;0.52;;
69750;SDS011;57335;52.288;6.056;2022-09-27T14:24:52;0.93;;;0.40;;
69750;SDS011;57335;52.288;6.056;2022-09-27T14:27:24;0.50;;;0.30;;
69750;SDS011;57335;52.288;6.056;2022-09-27T14:29:57;1.40;;;0.40;;
69750;SDS011;57335;52.288;6.056;2022-09-27T14:32:26;1.05;;;0.60;;
69750;SDS011;57335;52.288;6.056;2022-09-27T14:35:10;1.42;;;0.43;;
69750;SDS011;57335;52.288;6.056;2022-09-27T14:37:39;0.70;;;0.40;;
69750;SDS011;57335;52.288;6.056;2022-09-27T14:40:16;3.80;;;0.68;;
69750;SDS011;57335;52.288;6.056;2022-09-27T14:42:45;2.70;;;0.60;;
69750;SDS011;57335;52.288;6.056;2022-09-27T14:47:48;1.83;;;0.60;;
69750;SDS011;57335;52.288;6.056;2022-09-27T14:50:26;2.80;;;1.25;;
69750;SDS011;57335;52.288;6.056;2022-09-27T14:52:54;1.67;;;0.60;;
69750;SDS011;57335;52.288;6.056;2022-09-27T14:55:23;3.08;;;0.70;;
69750;SDS011;57335;52.288;6.056;2022-09-27T14:57:52;1.65;;;0.50;;
69750;SDS011;57335;52.288;6.056;2022-09-27T15:00:21;1.17;;;0.50;;
69750;SDS011;57335;52.288;6.056;2022-09-27T15:02:49;0.88;;;0.52;;
69750;SDS011;57335;52.288;6.056;2022-09-27T15:05:19;1.88;;;0.50;;
69750;SDS011;57335;52.288;6.056;2022-09-27T15:07:54;2.38;;;0.57;;
69750;SDS011;57335;52.288;6.056;2022-09-27T15:10:22;1.15;;;0.57;;
69750;SDS011;57335;52.288;6.056;2022-09-27T15:12:52;1.58;;;0.55;;
69750;SDS011;57335;52.288;6.056;2022-09-27T15:15:23;0.57;;;0.40;;
69750;SDS011;57335;52.288;6.056;2022-09-27T15:17:52;1.45;;;0.68;;
69750;SDS011;57335;52.288;6.056;2022-09-27T15:20:23;1.95;;;0.60;;
69750;SDS011;57335;52.288;6.056;2022-09-27T15:22:49;2.63;;;0.70;;
69750;SDS011;57335;52.288;6.056;2022-09-27T15:25:17;0.85;;;0.50;;
69750;SDS011;57335;52.288;6.056;2022-09-27T15:27:46;1.27;;;0.50;;
69750;SDS011;57335;52.288;6.056;2022-09-27T15:30:19;2.45;;;0.68;;
69750;SDS011;57335;52.288;6.056;2022-09-27T15:32:55;1.38;;;0.63;;
69750;SDS011;57335;52.288;6.056;2022-09-27T15:35:22;1.90;;;0.52;;
69750;SDS011;57335;52.288;6.056;2022-09-27T15:38:10;2.58;;;0.70;;
69750;SDS011;57335;52.288;6.056;2022-09-27T15:43:20;4.85;;;0.90;;
69750;SDS011;57335;52.288;6.056;2022-09-27T15:45:58;2.40;;;0.60;;
69750;SDS011;57335;52.288;6.056;2022-09-27T15:48:27;1.10;;;0.57;;
69750;SDS011;57335;52.288;6.056;2022-09-27T15:50:55;1.77;;;0.80;;
69750;SDS011;57335;52.288;6.056;2022-09-27T15:56:00;2.75;;;0.60;;
69750;SDS011;57335;52.288;6.056;2022-09-27T15:58:28;1.25;;;1.00;;
69750;SDS011;57335;52.288;6.056;2022-09-27T16:00:55;3.33;;;0.90;;
69750;SDS011;57335;52.288;6.056;2022-09-27T16:03:24;1.83;;;0.80;;
69750;SDS011;57335;52.288;6.056;2022-09-27T16:05:52;2.88;;;0.90;;
69750;SDS011;57335;52.288;6.056;2022-09-27T16:08:21;2.50;;;0.85;;
69750;SDS011;57335;52.288;6.056;2022-09-27T16:10:49;2.25;;;0.88;;
69750;SDS011;57335;52.288;6.056;2022-09-27T16:13:17;1.45;;;0.80;;
69750;SDS011;57335;52.288;6.056;2022-09-27T16:15:44;2.17;;;0.80;;
69750;SDS011;57335;52.288;6.056;2022-09-27T16:18:10;5.88;;;1.20;;
69750;SDS011;57335;52.288;6.056;2022-09-27T16:20:38;4.53;;;1.40;;
69750;SDS011;57335;52.288;6.056;2022-09-27T16:23:05;3.80;;;1.10;;
69750;SDS011;57335;52.288;6.056;2022-09-27T16:25:32;4.03;;;1.20;;
69750;SDS011;57335;52.288;6.056;2022-09-27T16:27:59;4.78;;;1.23;;
69750;SDS011;57335;52.288;6.056;2022-09-27T16:30:26;4.03;;;1.00;;
69750;SDS011;57335;52.288;6.056;2022-09-27T16:32:53;5.97;;;1.45;;
69750;SDS011;57335;52.288;6.056;2022-09-27T16:35:20;4.68;;;1.20;;
69750;SDS011;57335;52.288;6.056;2022-09-27T16:37:48;5.72;;;1.50;;
69750;SDS011;57335;52.288;6.056;2022-09-27T16:40:14;5.13;;;1.40;;
69750;SDS011;57335;52.288;6.056;2022-09-27T16:42:42;3.28;;;1.10;;
69750;SDS011;57335;52.288;6.056;2022-09-27T16:45:08;5.60;;;1.58;;
69750;SDS011;57335;52.288;6.056;2022-09-27T16:50:08;3.83;;;1.20;;
69750;SDS011;57335;52.288;6.056;2022-09-27T16:52:36;2.45;;;1.00;;
69750;SDS011;57335;52.288;6.056;2022-09-27T16:55:02;2.92;;;1.10;;
69750;SDS011;57335;52.288;6.056;2022-09-27T16:57:28;4.35;;;1.30;;
69750;SDS011;57335;52.288;6.056;2022-09-27T16:59:55;4.50;;;1.27;;
69750;SDS011;57335;52.288;6.056;2022-09-27T17:02:21;2.00;;;1.13;;
69750;SDS011;57335;52.288;6.056;2022-09-27T17:04:48;2.85;;;1.00;;
69750;SDS011;57335;52.288;6.056;2022-09-27T17:07:15;3.67;;;1.33;;
69750;SDS011;57335;52.288;6.056;2022-09-27T17:09:43;3.60;;;1.25;;
69750;SDS011;57335;52.288;6.056;2022-09-27T17:12:09;4.90;;;1.23;;
69750;SDS011;57335;52.288;6.056;2022-09-27T17:14:37;4.28;;;1.40;;
69750;SDS011;57335;52.288;6.056;2022-09-27T17:17:03;4.45;;;1.40;;
69750;SDS011;57335;52.288;6.056;2022-09-27T17:19:30;4.85;;;1.55;;
69750;SDS011;57335;52.288;6.056;2022-09-27T17:21:56;2.97;;;1.23;;
69750;SDS011;57335;52.288;6.056;2022-09-27T17:24:22;3.42;;;1.33;;
69750;SDS011;57335;52.288;6.056;2022-09-27T17:26:49;3.10;;;1.50;;
69750;SDS011;57335;52.288;6.056;2022-09-27T17:29:15;6.82;;;1.50;;
69750;SDS011;57335;52.288;6.056;2022-09-27T17:31:42;5.57;;;1.70;;
69750;SDS011;57335;52.288;6.056;2022-09-27T17:34:10;6.18;;;1.80;;
69750;SDS011;57335;52.288;6.056;2022-09-27T17:36:41;7.72;;;2.13;;
69750;SDS011;57335;52.288;6.056;2022-09-27T17:39:12;7.03;;;1.58;;
69750;SDS011;57335;52.288;6.056;2022-09-27T17:41:40;5.43;;;1.50;;
69750;SDS011;57335;52.288;6.056;2022-09-27T17:44:08;4.88;;;1.42;;